Main page
METAR-TAF:

METAR-TAF

Airports :

Brescia, Italy

Montichiari

latitude: 45-24-02N, longitude: 010-18-59E, elevation: 104 m

Current weather observation

The report was made 55 minutes ago, at 00:50 UTC
Wind 2 kt from the East
Temperature 16°C
Humidity 77%
Pressure 1202 hPa
Visibility 10 km or more
Scattered clouds at a height of 5000 ft

METAR: LIPO 260050Z 10002KT 9999 SCT050 16/12 Q1202

Time: 03:45 (01:45 UTC)

Forecast

The report was made 2 hours and 45 minutes ago, at 23:00 UTC
Forecast valid from 26 at 00 UTC to 26 at 24 UTC
Wind 5 kt from variable directions
Visibility 10 km or more
Scattered clouds at a height of 6000 ft

TAF: LIPO 252300Z 2600/2624 VRB05KT 9999 SCT060

Weather observations and forecasts of more than 4000 airports (METAR and TAF reports).

The available stations are represented by yellow and red dots on the map.

Hover mouse over dot to see the name of the station.

Then click to see weather observations and forecasts.

To change the map : click on the green buttons with a black cross to zoom in, on the green button with a dash to zoom out, or on the green arrows for adjacent maps.


METAR-TAF: